Thursday, March 05, 2015
22:32 UTC
  |  Log In   |  Register Free
Airport Search:

Chanute Martin Johnson Airport
(KCNU)

Chanute Martin Johnson Airport Diagram
No Airport Diagram Available

FAA data valid effective March 05, 2015 - April 30, 2015 (unless otherwise noted).

 
 
 
 
 
 
 
 
 
 
 
 
 
 

Current Aviation Weather for Chanute Martin Johnson Airport (KCNU)

The most recent METAR observation for KCNU was updated at: 2208
METAR Summary (Translated METAR)
KCNU
052152Z AUTO VRB03KT 10SM CLR 04/M11 A3048 RMK AO2 SLP329 T00391106
KPPF
052152Z AUTO 20005KT 10SM CLR 04/M09 A3049 RMK AO2 SLP335 T00441094
(20.3 nm SW from KCNU)
KIDP
052155Z AUTO 22004KT 10SM CLR 05/M10 A3048 RMK AO2
(33.7 nm SW from KCNU)
TAF Summary (Translated TAF)
KCNU
051720Z 0518/0618 VRB05KT P6SM SKC FM061300 21012KT P6SM SKC
  Airport Weather Conditions for KCNU

 Current Weather at CNU
39° F
Fair
Variable winds at 3.5 mph
CNU NOAA Radar

Pressure: 30.48 in
Humidity: 34%
Wind: Variable at 3.5 MPH (3 KT)
Dew Point: 12.9°F
Visibility: 10.00 mi


Airport Weather Forecast for KCNU

Translated METAR and TAF for KCNU
Translated METAR for KCNU (2231 UTC 05 March 2015)
found at http://aviationweather.gov/adds/metars/
 
METAR text: KCNU 052152Z AUTO VRB03KT 10SM CLR 04/M11 A3048 RMK AO2 SLP329 T00391106
Conditions at: KCNU (CHANUTE , KS, US) observed 2152 UTC 05 March 2015
Temperature: 3.9°C (39°F)
Dewpoint: -10.6°C (13°F) [RH = 34%]
Pressure (altimeter): 30.48 inches Hg (1032.3 mb)
[Sea-level pressure: 1032.9 mb]
Winds: variable direction winds at 3 MPH (3 knots; 1.6 m/s)
Visibility: 10 or more miles (16+ km)
Ceiling: at least 12,000 feet AGL
Clouds: sky clear below 12,000 feet AGL
Weather: automated observation with no human augmentation;
there may or may not be significant weather present at this time
Translated TAF for KCNU
Forecast for: KCNU (CHANUTE , KS, US)
TAF Text: KCNU 051720Z 0518/0618 VRB05KT P6SM SKC
Forecast period: 1800 UTC 05 March 2015 to 1300 UTC 06 March 2015
Forecast type: FROM: standard forecast or significant change
Winds: variable direction winds at 6 MPH (5 knots; 2.6 m/s)
Visibility: 6 or more miles (10+ km)
Clouds: clear skies
Weather: no significant weather forecast for this period
TAF Text: FM061300 21012KT P6SM SKC
Forecast period: 1300 to 1800 UTC 06 March 2015
Forecast type: FROM: standard forecast or significant change
Winds: from the SSW (210 degrees) at 14 MPH (12 knots; 6.2 m/s)
Visibility: 6 or more miles (10+ km)
Clouds: clear skies
Weather: no significant weather forecast for this period

Find All Airport Services Find A Hotel Find A Rental Car Find A Golf Course Find A Restaurant $100 Hamburger



FBO's on the Field
FBO Company Facility Photos Services Transportation Aviation Fuel Prices: Prices include tax
Catering Weather Repair Courtesy Rental Type 100LL JetA JetA+ MOGAS 8087
 
City of Chanute

This FBO has not yet been rated
FS:Phillips 66
Last Updated: Mar-04
Login to update fuel prices
SS:
Contact City of ChanuteMore FBO Information
 
Add another FBO Facility Photos Catering Weather Repair Courtesy Rental Type 100LL JetA JetA+ MOGAS 8087
Services Transportation Aviation Fuel Prices: Prices include tax


model-print
model-print
model-print
model-print